createdAt,value
2019-03-22T00:01:25.417Z,87.03
2019-03-22T00:03:54.455Z,73.77
2019-03-22T00:06:23.421Z,96.70
2019-03-22T00:08:51.982Z,78.37
2019-03-22T00:11:23.426Z,75.70
2019-03-22T00:13:54.713Z,83.63
2019-03-22T00:16:23.705Z,81.83
2019-03-22T00:18:55.433Z,75.27
2019-03-22T00:21:24.085Z,94.17
2019-03-22T00:23:52.643Z,80.07
2019-03-22T00:26:23.891Z,96.20
2019-03-22T00:28:52.480Z,108.73
2019-03-22T00:31:23.982Z,87.00
2019-03-22T00:33:55.558Z,88.30
2019-03-22T00:36:24.147Z,104.60
2019-03-22T00:38:55.746Z,87.90
2019-03-22T00:41:27.054Z,103.80
2019-03-22T00:43:58.276Z,80.10
2019-03-22T00:46:29.861Z,91.13
2019-03-22T00:49:03.413Z,90.37
2019-03-22T00:51:35.018Z,85.77
2019-03-22T00:54:03.588Z,111.23
2019-03-22T00:56:32.173Z,114.03
2019-03-22T00:59:00.738Z,91.53
2019-03-22T01:01:29.318Z,87.80
2019-03-22T01:03:57.880Z,107.83
2019-03-22T01:06:28.661Z,115.90
2019-03-22T01:08:57.081Z,111.53
2019-03-22T01:11:28.393Z,123.57
2019-03-22T01:13:56.953Z,87.07
2019-03-22T01:16:25.541Z,96.30
2019-03-22T01:18:54.101Z,95.93
2019-03-22T01:21:22.693Z,103.90
2019-03-22T01:23:52.794Z,90.37
2019-03-22T01:26:21.383Z,86.57
2019-03-22T01:28:50.161Z,90.80
2019-03-22T01:31:18.784Z,88.37
2019-03-22T01:33:50.440Z,80.83
2019-03-22T01:36:19.345Z,84.00
2019-03-22T01:38:50.962Z,93.10
2019-03-22T01:41:22.694Z,95.23
2019-03-22T01:43:54.023Z,79.80
2019-03-22T01:46:22.614Z,97.77
2019-03-22T01:48:51.495Z,98.87
2019-03-22T01:51:23.043Z,89.17
2019-03-22T01:53:51.934Z,71.73
2019-03-22T01:56:20.522Z,84.57
2019-03-22T01:58:49.428Z,73.77
2019-03-22T02:01:20.990Z,68.10
2019-03-22T02:03:49.546Z,76.37
2019-03-22T02:06:18.130Z,69.93
2019-03-22T02:08:46.693Z,79.77
2019-03-22T02:11:20.465Z,77.57
2019-03-22T02:13:49.050Z,74.40
2019-03-22T02:16:20.812Z,84.57
2019-03-22T02:18:52.657Z,86.17
2019-03-22T02:21:21.251Z,83.40
2019-03-22T02:23:52.665Z,81.43
2019-03-22T02:26:23.940Z,84.93
2019-03-22T02:28:52.952Z,83.70
2019-03-22T02:31:21.607Z,79.73
2019-03-22T02:33:50.627Z,77.50
2019-03-22T02:36:19.222Z,87.80
2019-03-22T02:38:50.538Z,82.17
2019-03-22T02:41:19.139Z,80.17
2019-03-22T02:43:54.844Z,83.30
2019-03-22T02:46:23.631Z,72.57
2019-03-22T02:48:55.355Z,75.43
2019-03-22T02:51:23.966Z,79.27
2019-03-22T02:53:52.502Z,77.77
2019-03-22T02:56:21.100Z,80.87
2019-03-22T02:58:52.612Z,68.30
2019-03-22T03:01:21.465Z,75.80
2019-03-22T03:03:50.049Z,73.73
2019-03-22T03:06:18.629Z,77.00
2019-03-22T03:08:49.940Z,55.70
2019-03-22T03:11:21.460Z,71.57
2019-03-22T03:13:52.815Z,71.37
2019-03-22T03:16:24.334Z,64.17
2019-03-22T03:18:55.093Z,65.33
2019-03-22T03:21:23.663Z,66.73
2019-03-22T03:23:52.285Z,63.53
2019-03-22T03:26:20.850Z,63.67
2019-03-22T03:28:52.404Z,68.20
2019-03-22T03:31:20.999Z,59.40
2019-03-22T03:33:49.627Z,72.77
2019-03-22T03:36:18.210Z,70.33
2019-03-22T03:38:47.108Z,72.87
2019-03-22T03:41:15.670Z,62.57
2019-03-22T03:43:44.251Z,58.67
2019-03-22T03:46:15.481Z,60.50
2019-03-22T03:48:47.211Z,71.40
2019-03-22T03:51:18.467Z,67.97
2019-03-22T03:53:47.157Z,66.53
2019-03-22T03:56:15.678Z,61.23
2019-03-22T03:58:52.748Z,65.23
2019-03-22T04:01:17.489Z,74.60
2019-03-22T04:03:46.081Z,64.40
2019-03-22T04:06:14.642Z,67.23
2019-03-22T04:08:51.876Z,67.53
2019-03-22T04:11:20.431Z,62.30
2019-03-22T04:13:51.787Z,64.67
2019-03-22T04:16:23.483Z,72.60
2019-03-22T04:18:52.067Z,75.10
2019-03-22T04:21:20.755Z,58.97
2019-03-22T04:23:49.346Z,70.17
2019-03-22T04:26:17.905Z,76.43
2019-03-22T04:28:46.842Z,61.90
2019-03-22T04:31:19.514Z,61.43
2019-03-22T04:33:50.932Z,65.23
2019-03-22T04:36:19.506Z,67.40
2019-03-22T04:38:48.087Z,68.57
2019-03-22T04:41:16.647Z,61.90
2019-03-22T04:43:47.921Z,59.30
2019-03-22T04:46:18.014Z,63.30
2019-03-22T04:48:51.092Z,63.60
2019-03-22T04:51:19.801Z,72.90
2019-03-22T04:53:51.738Z,70.23
2019-03-22T04:56:22.134Z,59.43
2019-03-22T04:58:52.071Z,70.57
2019-03-22T05:01:22.883Z,83.30
2019-03-22T05:03:52.500Z,69.90
2019-03-22T05:06:22.593Z,58.63
2019-03-22T05:08:52.320Z,58.67
2019-03-22T05:11:24.825Z,54.40
2019-03-22T05:13:56.809Z,57.97
2019-03-22T05:16:29.934Z,53.50
2019-03-22T05:19:04.796Z,59.73
2019-03-22T05:21:35.119Z,62.60
2019-03-22T05:24:05.457Z,66.43
2019-03-22T05:26:37.515Z,58.93
2019-03-22T05:29:11.651Z,68.60
2019-03-22T05:31:43.269Z,75.90
2019-03-22T05:34:15.119Z,62.17
2019-03-22T05:36:43.692Z,72.77
2019-03-22T05:39:15.031Z,67.10
2019-03-22T05:41:49.522Z,65.23
2019-03-22T05:44:18.468Z,72.43
2019-03-22T05:46:50.053Z,61.90
2019-03-22T05:49:18.740Z,67.20
2019-03-22T05:51:50.523Z,61.97
2019-03-22T05:54:24.551Z,76.13
2019-03-22T05:56:53.189Z,60.53
2019-03-22T05:59:24.517Z,71.30
2019-03-22T06:01:56.198Z,55.43
2019-03-22T06:04:24.773Z,58.30
2019-03-22T06:06:53.778Z,64.33
2019-03-22T06:09:25.670Z,55.67
2019-03-22T06:11:55.089Z,60.73
2019-03-22T06:14:24.042Z,59.70
2019-03-22T06:16:55.518Z,56.20
2019-03-22T06:19:24.081Z,52.23
2019-03-22T06:21:55.899Z,66.20
2019-03-22T06:24:29.140Z,56.43
2019-03-22T06:26:57.721Z,51.00
2019-03-22T06:29:26.727Z,67.83
2019-03-22T06:31:58.650Z,65.20
2019-03-22T06:34:27.275Z,52.80
2019-03-22T06:36:55.861Z,60.50
2019-03-22T06:39:27.489Z,63.73
2019-03-22T06:41:59.036Z,61.87
2019-03-22T06:44:30.697Z,69.47
2019-03-22T06:46:59.268Z,72.90
2019-03-22T06:49:31.348Z,70.70
2019-03-22T06:52:01.924Z,67.20
2019-03-22T06:54:31.793Z,74.17
2019-03-22T06:57:00.747Z,54.03
2019-03-22T06:59:29.310Z,65.53
2019-03-22T07:01:57.888Z,71.40
2019-03-22T07:04:26.443Z,65.30
2019-03-22T07:06:57.886Z,65.97
2019-03-22T07:09:26.853Z,61.50
2019-03-22T07:11:58.152Z,75.40
2019-03-22T07:14:26.717Z,52.47
2019-03-22T07:16:55.299Z,64.77
2019-03-22T07:19:23.864Z,69.17
2019-03-22T07:21:55.418Z,66.03
2019-03-22T07:24:23.980Z,60.37
2019-03-22T07:26:52.577Z,70.13
2019-03-22T07:29:21.141Z,65.60
2019-03-22T07:31:50.779Z,71.43
2019-03-22T07:34:22.145Z,74.30
2019-03-22T07:36:56.740Z,61.27
2019-03-22T07:39:25.452Z,66.73
2019-03-22T07:41:54.391Z,75.20
2019-03-22T07:44:25.717Z,61.60
2019-03-22T07:46:57.469Z,62.80
2019-03-22T07:49:30.197Z,60.07
2019-03-22T07:52:01.941Z,61.63
2019-03-22T07:54:30.503Z,68.20
2019-03-22T07:56:59.090Z,65.07
2019-03-22T07:59:30.626Z,78.43
2019-03-22T08:02:02.152Z,66.93
2019-03-22T08:04:30.763Z,61.97
2019-03-22T08:07:02.363Z,75.30
2019-03-22T08:09:30.906Z,60.10
2019-03-22T08:11:59.732Z,61.10
2019-03-22T08:14:28.287Z,72.23
2019-03-22T08:17:08.726Z,64.37
2019-03-22T08:19:41.051Z,67.37
2019-03-22T08:22:09.637Z,64.97
2019-03-22T08:24:38.715Z,60.40
2019-03-22T08:27:13.840Z,68.57
2019-03-22T08:29:44.941Z,68.30
2019-03-22T08:32:14.350Z,71.70
2019-03-22T08:34:47.633Z,74.80
2019-03-22T08:37:15.811Z,79.87
2019-03-22T08:39:44.416Z,74.20
2019-03-22T08:42:14.527Z,75.30
2019-03-22T08:44:48.820Z,68.90
2019-03-22T08:47:32.810Z,80.93
2019-03-22T08:49:58.029Z,108.10
2019-03-22T08:52:29.639Z,63.23
2019-03-22T08:54:58.224Z,71.00
2019-03-22T08:57:29.583Z,66.17
2019-03-22T09:00:03.031Z,74.13
2019-03-22T09:02:56.540Z,83.20
2019-03-22T09:05:28.277Z,81.63
2019-03-22T09:10:46.821Z,82.10
2019-03-22T09:13:45.356Z,63.30
2019-03-22T09:16:17.298Z,64.57
2019-03-22T09:18:48.909Z,64.33
2019-03-22T09:21:17.439Z,60.00
2019-03-22T09:23:46.103Z,60.90
2019-03-22T09:26:20.003Z,70.50
2019-03-22T09:28:48.239Z,51.77
2019-03-22T09:31:16.888Z,70.53
2019-03-22T09:33:51.429Z,61.20
2019-03-22T09:36:22.740Z,53.80
2019-03-22T09:38:54.236Z,61.77
2019-03-22T09:41:22.774Z,60.27
2019-03-22T09:43:51.362Z,52.10
2019-03-22T09:46:19.937Z,61.93
2019-03-22T09:48:48.513Z,62.87
2019-03-22T09:51:19.871Z,51.17
2019-03-22T09:53:51.498Z,52.43
2019-03-22T09:56:20.137Z,46.13
2019-03-22T09:58:48.738Z,57.03
2019-03-22T10:01:23.849Z,60.30
2019-03-22T10:03:53.577Z,53.23
2019-03-22T10:06:28.597Z,48.37
2019-03-22T10:09:08.884Z,44.87
2019-03-22T10:11:40.488Z,39.83
2019-03-22T10:14:13.840Z,46.27
2019-03-22T10:16:47.459Z,43.97
2019-03-22T10:19:24.669Z,43.63
2019-03-22T10:21:59.328Z,47.70
2019-03-22T10:27:13.678Z,43.87
2019-03-22T10:32:44.153Z,44.07
2019-03-22T10:35:25.547Z,41.93
2019-03-22T10:37:46.598Z,46.70
2019-03-22T10:40:15.317Z,43.93
2019-03-22T10:42:43.943Z,39.90
2019-03-22T10:45:15.156Z,46.10
2019-03-22T10:47:43.753Z,39.67
2019-03-22T10:50:13.937Z,41.53
2019-03-22T10:52:42.550Z,44.00
2019-03-22T10:55:29.264Z,46.17
2019-03-22T10:57:47.612Z,41.33
2019-03-22T11:00:18.005Z,45.20
2019-03-22T11:02:46.743Z,44.83
2019-03-22T11:05:18.352Z,53.27
2019-03-22T11:07:46.910Z,45.53
2019-03-22T11:10:18.298Z,54.07
2019-03-22T11:12:46.867Z,46.87
2019-03-22T11:15:16.301Z,59.77
2019-03-22T11:17:44.947Z,48.20
2019-03-22T11:20:16.324Z,42.33
2019-03-22T11:22:47.958Z,51.53
2019-03-22T11:25:16.699Z,48.53
2019-03-22T11:27:47.394Z,51.97
2019-03-22T11:30:18.647Z,54.80
2019-03-22T11:32:47.386Z,49.23
2019-03-22T11:35:16.502Z,46.73
2019-03-22T11:37:45.061Z,43.37
2019-03-22T11:40:15.799Z,48.23
2019-03-22T11:42:44.362Z,44.87
2019-03-22T11:45:21.118Z,41.03
2019-03-22T11:47:49.743Z,47.23
2019-03-22T11:50:21.014Z,42.90
2019-03-22T11:52:49.981Z,37.67
2019-03-22T11:55:18.688Z,39.13
2019-03-22T11:57:48.079Z,41.97
2019-03-22T12:00:24.691Z,48.90
2019-03-22T12:02:53.352Z,36.17
2019-03-22T12:05:22.925Z,47.77
2019-03-22T12:07:51.804Z,37.93
2019-03-22T12:10:23.646Z,36.17
2019-03-22T12:12:55.656Z,36.43
2019-03-22T12:15:27.024Z,46.07
2019-03-22T12:17:55.616Z,42.70
2019-03-22T12:20:26.937Z,40.40
2019-03-22T12:22:55.530Z,44.40
2019-03-22T12:25:25.742Z,39.10
2019-03-22T12:27:54.320Z,52.43
2019-03-22T12:30:26.176Z,41.93
2019-03-22T12:32:54.769Z,37.03
2019-03-22T12:35:23.326Z,39.73
2019-03-22T12:37:51.907Z,44.23
2019-03-22T12:40:24.014Z,44.27
2019-03-22T12:42:56.656Z,42.77
2019-03-22T12:45:32.738Z,55.83
2019-03-22T12:48:01.337Z,45.83
2019-03-22T12:50:35.508Z,39.27
2019-03-22T12:53:07.062Z,48.50
2019-03-22T12:55:38.820Z,41.57
2019-03-22T12:58:07.405Z,33.53
2019-03-22T13:00:36.046Z,40.83
2019-03-22T13:03:05.063Z,35.43
2019-03-22T13:05:33.801Z,38.63
2019-03-22T13:08:03.496Z,38.80
2019-03-22T13:10:32.226Z,39.40
2019-03-22T13:13:03.924Z,37.73
2019-03-22T13:15:32.878Z,37.17
2019-03-22T13:18:04.711Z,40.33
2019-03-22T13:20:33.278Z,38.73
2019-03-22T13:26:09.279Z,41.90
2019-03-22T13:28:41.883Z,44.77
2019-03-22T13:31:12.996Z,41.57
2019-03-22T13:33:42.188Z,42.97
2019-03-22T13:36:13.915Z,40.53
2019-03-22T13:38:45.504Z,42.17
2019-03-22T13:41:14.228Z,42.33
2019-03-22T13:43:45.532Z,43.23
2019-03-22T13:46:14.095Z,40.33
2019-03-22T13:48:45.851Z,45.40
2019-03-22T13:51:17.526Z,37.60
2019-03-22T13:53:46.120Z,46.93
2019-03-22T13:56:14.680Z,37.70
2019-03-22T13:58:49.229Z,47.50
2019-03-22T14:01:17.797Z,41.97
2019-03-22T14:03:49.308Z,39.00
2019-03-22T14:06:21.114Z,45.40
2019-03-22T14:08:50.098Z,49.07
2019-03-22T14:11:36.118Z,47.63
2019-03-22T14:17:05.343Z,53.37
2019-03-22T14:19:36.908Z,46.33
2019-03-22T14:22:08.471Z,49.27
2019-03-22T14:24:41.382Z,48.93
2019-03-22T14:27:09.889Z,41.67
2019-03-22T14:29:41.544Z,45.27
2019-03-22T14:32:12.220Z,40.33
2019-03-22T14:34:46.670Z,45.70
2019-03-22T14:37:18.213Z,43.70
2019-03-22T14:39:49.656Z,41.80
2019-03-22T14:42:18.223Z,45.43
2019-03-22T14:44:50.243Z,49.97
2019-03-22T14:47:21.756Z,45.50
2019-03-22T14:49:50.344Z,38.93
2019-03-22T14:52:21.573Z,42.77
2019-03-22T14:54:52.906Z,37.00
2019-03-22T14:57:24.202Z,45.60
2019-03-22T14:59:58.938Z,40.87
2019-03-22T15:02:25.809Z,45.77
2019-03-22T15:04:57.773Z,39.37
2019-03-22T15:07:29.357Z,48.97
2019-03-22T15:09:58.022Z,43.43
2019-03-22T15:12:29.363Z,50.73
2019-03-22T15:15:05.357Z,38.50
2019-03-22T15:17:47.300Z,42.07
2019-03-22T15:20:38.837Z,47.23
2019-03-22T15:23:13.485Z,47.93
2019-03-22T15:26:04.236Z,41.80
2019-03-22T15:28:54.998Z,46.47
2019-03-22T15:31:44.163Z,47.00
2019-03-22T15:34:22.881Z,42.53
2019-03-22T15:37:04.760Z,45.57
2019-03-22T15:39:38.067Z,46.47
2019-03-22T15:42:06.792Z,45.57
2019-03-22T15:44:35.387Z,39.87
2019-03-22T15:47:07.305Z,41.50
2019-03-22T15:49:35.861Z,49.40
2019-03-22T15:52:04.529Z,44.17
2019-03-22T15:54:33.079Z,41.50
2019-03-22T15:57:01.764Z,49.73
2019-03-22T15:59:32.995Z,51.70
2019-03-22T16:02:01.652Z,41.13
2019-03-22T16:04:32.902Z,41.87
2019-03-22T16:07:04.887Z,40.73
2019-03-22T16:09:33.826Z,40.03
2019-03-22T16:12:02.497Z,44.57
2019-03-22T16:14:31.125Z,38.70
2019-03-22T16:17:00.135Z,41.73
2019-03-22T16:19:28.693Z,43.03
2019-03-22T16:22:00.510Z,46.50
2019-03-22T16:24:29.065Z,44.10
2019-03-22T16:26:57.653Z,41.37
2019-03-22T16:29:28.957Z,49.13
2019-03-22T16:31:58.365Z,44.13
2019-03-22T16:34:35.894Z,46.88
2019-03-22T16:37:05.023Z,41.20
2019-03-22T16:39:36.291Z,40.10
2019-03-22T16:42:05.023Z,45.63
2019-03-22T16:44:36.260Z,47.33
2019-03-22T16:47:07.646Z,53.00
2019-03-22T16:49:36.214Z,47.20
2019-03-22T16:52:07.858Z,43.10
2019-03-22T16:54:39.131Z,49.37
2019-03-22T16:57:07.719Z,39.63
2019-03-22T16:59:39.214Z,42.90
2019-03-22T17:02:07.939Z,51.63
2019-03-22T17:04:39.570Z,44.80
2019-03-22T17:07:08.741Z,39.47
2019-03-22T17:09:40.297Z,48.30
2019-03-22T17:12:11.526Z,52.17
2019-03-22T17:14:42.810Z,47.37
2019-03-22T17:17:14.089Z,47.97
2019-03-22T17:19:42.649Z,49.87
2019-03-22T17:22:13.909Z,48.27
2019-03-22T17:24:45.208Z,62.20
2019-03-22T17:27:16.628Z,52.10
2019-03-22T17:29:47.922Z,44.20
2019-03-22T17:32:16.907Z,51.47
2019-03-22T17:34:48.633Z,48.37
2019-03-22T17:37:17.251Z,60.17
2019-03-22T17:39:45.824Z,49.03
2019-03-22T17:42:17.235Z,60.40
2019-03-22T17:44:48.500Z,49.07
2019-03-22T17:47:20.186Z,51.73
2019-03-22T17:49:51.492Z,50.70
2019-03-22T17:52:20.069Z,52.43
2019-03-22T17:54:48.626Z,58.07
2019-03-22T17:57:18.898Z,58.43
2019-03-22T17:59:50.661Z,51.50
2019-03-22T18:02:24.844Z,59.70
2019-03-22T18:04:56.780Z,64.60
2019-03-22T18:07:28.017Z,53.37
2019-03-22T18:10:02.968Z,53.40
2019-03-22T18:12:34.723Z,56.30
2019-03-22T18:15:04.048Z,53.30
2019-03-22T18:17:32.605Z,58.90
2019-03-22T18:20:01.179Z,49.17
2019-03-22T18:22:30.509Z,62.63
2019-03-22T18:24:59.205Z,66.73
2019-03-22T18:27:30.702Z,74.37
2019-03-22T18:30:02.083Z,77.40
2019-03-22T18:32:30.644Z,89.77
2019-03-22T18:34:59.253Z,96.63
2019-03-22T18:37:27.820Z,97.57
2019-03-22T18:39:58.032Z,99.17
2019-03-22T18:42:26.594Z,97.30
2019-03-22T18:44:55.185Z,89.10
2019-03-22T18:47:23.745Z,91.37
2019-03-22T18:49:55.326Z,107.93
2019-03-22T18:52:26.906Z,97.37
2019-03-22T18:55:14.827Z,131.03
2019-03-22T18:57:46.213Z,148.20
2019-03-22T19:00:17.276Z,144.87
2019-03-22T19:02:45.839Z,134.63
2019-03-22T19:05:17.456Z,127.17
2019-03-22T19:07:48.794Z,128.40
2019-03-22T19:10:20.377Z,126.73
2019-03-22T19:12:50.004Z,125.10
2019-03-22T19:15:21.508Z,118.07
2019-03-22T19:17:53.017Z,141.20
2019-03-22T19:20:22.027Z,122.23
2019-03-22T19:22:59.489Z,126.77
2019-03-22T19:25:31.015Z,114.93
2019-03-22T19:28:02.510Z,113.70
2019-03-22T19:30:34.284Z,122.33
2019-03-22T19:33:02.865Z,110.07
2019-03-22T19:35:35.751Z,104.13
2019-03-22T19:38:05.315Z,125.37
2019-03-22T19:40:35.426Z,118.10
2019-03-22T19:43:06.538Z,143.50
2019-03-22T19:45:47.230Z,149.50
2019-03-22T19:48:15.889Z,149.27
2019-03-22T19:53:47.703Z,163.07
2019-03-22T19:56:25.573Z,156.17
2019-03-22T19:59:03.261Z,158.23
2019-03-22T20:01:35.178Z,191.83
2019-03-22T20:04:23.110Z,161.63
2019-03-22T20:06:54.351Z,167.17
2019-03-22T20:09:25.943Z,177.57
2019-03-22T20:11:57.488Z,160.30
2019-03-22T20:14:29.132Z,153.00
2019-03-22T20:17:03.439Z,165.00
2019-03-22T20:19:32.812Z,134.30
2019-03-22T20:22:06.070Z,143.83
2019-03-22T20:24:37.420Z,152.03
2019-03-22T20:27:09.246Z,158.30
2019-03-22T20:29:43.883Z,145.07
2019-03-22T20:32:15.893Z,128.50
2019-03-22T20:34:47.208Z,111.53
2019-03-22T20:37:15.806Z,122.73
2019-03-22T20:39:47.285Z,140.27
2019-03-22T20:42:18.858Z,123.03
2019-03-22T20:44:47.426Z,128.63
2019-03-22T20:47:19.107Z,105.60
2019-03-22T20:49:50.468Z,115.70
2019-03-22T20:52:22.188Z,112.83
2019-03-22T20:54:53.831Z,137.13
2019-03-22T20:57:28.313Z,122.90
2019-03-22T20:59:56.888Z,122.07
2019-03-22T21:02:28.214Z,112.77
2019-03-22T21:04:56.782Z,133.40
2019-03-22T21:07:25.389Z,104.13
2019-03-22T21:09:54.388Z,109.47
2019-03-22T21:12:22.936Z,107.37
2019-03-22T21:14:54.973Z,109.37
2019-03-22T21:17:26.646Z,101.83
2019-03-22T21:19:55.578Z,127.83
2019-03-22T21:22:26.869Z,96.03
2019-03-22T21:24:58.550Z,111.53
2019-03-22T21:27:30.535Z,101.17
2019-03-22T21:29:59.109Z,103.83
2019-03-22T21:32:28.044Z,82.13
2019-03-22T21:34:59.516Z,93.70
2019-03-22T21:37:34.185Z,98.97
2019-03-22T21:40:07.562Z,79.80
2019-03-22T21:42:39.190Z,101.13
2019-03-22T21:45:09.046Z,89.60
2019-03-22T21:47:43.816Z,93.27
2019-03-22T21:50:16.087Z,93.93
2019-03-22T21:52:47.461Z,100.17
2019-03-22T21:55:19.072Z,106.63
2019-03-22T21:57:47.671Z,100.73
2019-03-22T22:00:16.480Z,100.77
2019-03-22T22:02:45.078Z,102.63
2019-03-22T22:05:13.633Z,115.00
2019-03-22T22:07:44.101Z,112.07
2019-03-22T22:10:15.482Z,109.37
2019-03-22T22:12:44.081Z,131.70
2019-03-22T22:15:15.666Z,125.07
2019-03-22T22:17:44.630Z,134.77
2019-03-22T22:20:16.102Z,138.83
2019-03-22T22:22:44.693Z,139.37
2019-03-22T22:25:16.591Z,163.57
2019-03-22T22:27:45.514Z,152.93
2019-03-22T22:30:14.209Z,144.97
2019-03-22T22:32:43.136Z,165.60
2019-03-22T22:35:11.776Z,138.77
2019-03-22T22:37:40.371Z,142.87
2019-03-22T22:40:13.529Z,148.57
2019-03-22T22:42:42.535Z,143.97
2019-03-22T22:45:26.008Z,133.83
2019-03-22T22:47:54.603Z,122.00
2019-03-22T22:50:23.169Z,129.13
2019-03-22T22:52:51.755Z,152.30
2019-03-22T22:55:20.336Z,151.67
2019-03-22T22:57:48.933Z,163.37
2019-03-22T23:00:18.542Z,157.53
2019-03-22T23:02:47.137Z,171.53
2019-03-22T23:05:15.698Z,167.63
2019-03-22T23:07:44.296Z,161.63
2019-03-22T23:10:12.997Z,145.37
2019-03-22T23:12:44.583Z,144.23
2019-03-22T23:15:14.759Z,134.03
2019-03-22T23:17:46.095Z,122.50
2019-03-22T23:20:14.657Z,130.70
2019-03-22T23:22:46.257Z,111.50
2019-03-22T23:25:14.814Z,126.80
2019-03-22T23:27:43.403Z,129.43
2019-03-22T23:30:13.109Z,119.50
2019-03-22T23:32:44.929Z,157.40
2019-03-22T23:35:13.567Z,129.00
2019-03-22T23:37:43.648Z,116.90
2019-03-22T23:40:13.747Z,143.53
2019-03-22T23:42:43.823Z,156.50
2019-03-22T23:45:15.939Z,130.37
2019-03-22T23:47:44.844Z,150.20
2019-03-22T23:50:13.702Z,157.07
2019-03-22T23:52:43.786Z,169.30
2019-03-22T23:55:12.537Z,140.00
2019-03-22T23:57:42.841Z,183.07
